Observation data for Seymour on 05/15/2018      Previous  Date  Next       Current Mesonet Observations  Soil Data  Daily Summary Page  Observations in Plain Language
KSE1 150500Z 10012KT 23/18 A2986 RMK A01 T02260179  RH  077%=      5-min Rain = 0
KSE1 150505Z 11011KT 23/18 A2986 RMK A01 T02270183  RH  078%=      5-min Rain = 0
KSE1 150510Z 11009KT 23/19 A2986 RMK A01 T02280187  RH  080%=      5-min Rain = 0
KSE1 150515Z 10008KT 23/19 A2987 RMK A01 T02280190  RH  081%=      5-min Rain = 0
KSE1 150520Z 09009G14KT 23/19 A2988 RMK A01 T02290192  RH  082%=      5-min Rain = 0
KSE1 150525Z 07006KT 23/19 A2988 RMK A01 T02250192  RH  084%=      5-min Rain = 0
KSE1 150530Z 07006G11KT 22/19 A2988 RMK A01 T02210186  RH  083%=      5-min Rain = 0
KSE1 150535Z 08007KT 22/18 A2988 RMK A01 T02180182  RH  082%=      5-min Rain = 0
KSE1 150540Z 08007KT 22/18 A2988 RMK A01 T02160179  RH  082%=      5-min Rain = 0
KSE1 150545Z 06007KT 21/18 A2988 RMK A01 T02140177  RH  082%=      5-min Rain = 0
KSE1 150550Z 07005KT 21/18 A2988 RMK A01 T02120176  RH  081%=      5-min Rain = 0
KSE1 150555Z 07003KT 21/17 A2987 RMK A01 T02100174  RH  082%=      5-min Rain = 0
KSE1 150600Z 07004KT 21/17 A2987 RMK A01 T02080174  RH  083%=      5-min Rain = 0
KSE1 150605Z 06004KT 21/17 A2987 RMK A01 T02060174  RH  084%=      5-min Rain = 0
KSE1 150610Z 09003KT 21/17 A2987 RMK A01 T02070173  RH  083%=      5-min Rain = 0
KSE1 150615Z 11003KT 20/17 A2987 RMK A01 T02040172  RH  084%=      5-min Rain = 0
KSE1 150620Z 13003KT 20/17 A2987 RMK A01 T02000171  RH  085%=      5-min Rain = 0
KSE1 150625Z 16002KT 20/17 A2987 RMK A01 T01990170  RH  086%=      5-min Rain = 0
KSE1 150630Z 18002KT 20/17 A2987 RMK A01 T01960169  RH  086%=      5-min Rain = 0
KSE1 150635Z 20003KT 20/17 A2987 RMK A01 T01960169  RH  086%=      5-min Rain = 0
KSE1 150640Z 18004KT 20/17 A2987 RMK A01 T01950169  RH  087%=      5-min Rain = 0
KSE1 150645Z 18005KT 20/17 A2986 RMK A01 T01970170  RH  087%=      5-min Rain = 0
KSE1 150650Z 19004KT 20/17 A2986 RMK A01 T01990171  RH  086%=      5-min Rain = 0
KSE1 150655Z 18004KT 20/17 A2987 RMK A01 T01990172  RH  086%=      5-min Rain = 0
KSE1 150700Z 20002KT 20/17 A2987 RMK A01 T01980171  RH  086%=      5-min Rain = 0
KSE1 150705Z 21001KT 20/17 A2988 RMK A01 T01970171  RH  087%=      5-min Rain = 0
KSE1 150710Z 12000KT 20/17 A2988 RMK A01 T01970171  RH  087%=      5-min Rain = 0
KSE1 150715Z 08000KT 20/17 A2989 RMK A01 T01990173  RH  087%=      5-min Rain = 0
KSE1 150720Z 03001KT 20/17 A2989 RMK A01 T01970171  RH  087%=      5-min Rain = 0
KSE1 150725Z 31001KT 20/17 A2989 RMK A01 T01950173  RH  089%=      5-min Rain = 0
KSE1 150730Z 00000KT 19/17 A2989 RMK A01 T01930168  RH  087%=      5-min Rain = 0
KSE1 150735Z 08001KT 19/17 A2989 RMK A01 T01860167  RH  090%=      5-min Rain = 0
KSE1 150740Z 07001KT 19/17 A299 RMK A01 T01890168  RH  090%=      5-min Rain = 0
KSE1 150745Z 03001KT 18/17 A299 RMK A01 T01820165  RH  092%=      5-min Rain = 0
KSE1 150750Z 00003KT 19/17 A299 RMK A01 T01890173  RH  093%=      5-min Rain = 0
KSE1 150755Z 35004KT 19/17 A299 RMK A01 T01920173  RH  091%=      5-min Rain = 0
KSE1 150800Z 01005KT 19/17 A299 RMK A01 T01910171  RH  090%=      5-min Rain = 0
KSE1 150805Z 33004KT 19/17 A299 RMK A01 T01890171  RH  091%=      5-min Rain = 0
KSE1 150810Z 03005KT 19/17 A2989 RMK A01 T01920174  RH  091%=      5-min Rain = 0
KSE1 150815Z 05004KT 19/17 A2989 RMK A01 T01910172  RH  091%=      5-min Rain = 0
KSE1 150820Z 07004KT 19/17 A2988 RMK A01 T01910172  RH  091%=      5-min Rain = 0
KSE1 150825Z 06003KT 19/17 A2988 RMK A01 T01900171  RH  091%=      5-min Rain = 0
KSE1 150830Z 08004KT 19/17 A2988 RMK A01 T01900172  RH  091%=      5-min Rain = 0
KSE1 150835Z 08006KT 19/17 A2987 RMK A01 T01910172  RH  091%=      5-min Rain = 0
KSE1 150840Z 09005KT 19/17 A2987 RMK A01 T01930171  RH  089%=      5-min Rain = 0
KSE1 150845Z 11006KT 19/17 A2987 RMK A01 T01890169  RH  091%=      5-min Rain = 0
KSE1 150850Z 11006KT 19/17 A2986 RMK A01 T01890171  RH  091%=      5-min Rain = 0
KSE1 150855Z 10004KT 19/17 A2986 RMK A01 T01910171  RH  090%=      5-min Rain = 0
KSE1 150900Z 14002KT 19/17 A2987 RMK A01 T01890169  RH  090%=      5-min Rain = 0
KSE1 150905Z 14001KT 19/17 A2987 RMK A01 T01870168  RH  091%=      5-min Rain = 0
KSE1 150910Z 16001KT 19/17 A2987 RMK A01 T01860168  RH  091%=      5-min Rain = 0
KSE1 150915Z 16002KT 19/17 A2987 RMK A01 T01850168  RH  092%=      5-min Rain = 0
KSE1 150920Z 17002KT 18/17 A2987 RMK A01 T01800165  RH  093%=      5-min Rain = 0
KSE1 150925Z 17003KT 18/17 A2987 RMK A01 T01790166  RH  094%=      5-min Rain = 0
KSE1 150930Z 16004KT 18/17 A2987 RMK A01 T01800167  RH  095%=      5-min Rain = 0
KSE1 150935Z 15005KT 18/17 A2986 RMK A01 T01790166  RH  094%=      5-min Rain = 0
KSE1 150940Z 14004KT 18/16 A2986 RMK A01 T01770163  RH  093%=      5-min Rain = 0
KSE1 150945Z 13002KT 18/16 A2987 RMK A01 T01770164  RH  094%=      5-min Rain = 0
KSE1 150950Z 13002KT 18/17 A2987 RMK A01 T01790166  RH  094%=      5-min Rain = 0
KSE1 150955Z 13002KT 18/17 A2987 RMK A01 T01790165  RH  094%=      5-min Rain = 0
KSE1 151000Z 14001KT 18/16 A2987 RMK A01 T01780164  RH  094%=      5-min Rain = 0
KSE1 151005Z 14001KT 18/17 A2987 RMK A01 T01780165  RH  094%=      5-min Rain = 0
KSE1 151010Z 13002KT 18/17 A2988 RMK A01 T01790167  RH  095%=      5-min Rain = 0
KSE1 151015Z 10002KT 18/17 A2988 RMK A01 T01810168  RH  095%=      5-min Rain = 0
KSE1 151020Z 10005KT 18/17 A2987 RMK A01 T01810168  RH  094%=      5-min Rain = 0
KSE1 151025Z 11005KT 18/16 A2988 RMK A01 T01800164  RH  093%=      5-min Rain = 0
KSE1 151030Z 10005KT 18/17 A2988 RMK A01 T01790166  RH  094%=      5-min Rain = 0
KSE1 151035Z 09004KT 18/17 A2989 RMK A01 T01840170  RH  094%=      5-min Rain = 0
KSE1 151040Z 08004KT 19/17 A2989 RMK A01 T01860171  RH  093%=      5-min Rain = 0
KSE1 151045Z 07004KT 19/17 A299 RMK A01 T01850170  RH  093%=      5-min Rain = 0
KSE1 151050Z 06005KT 19/17 A299 RMK A01 T01850170  RH  093%=      5-min Rain = 0
KSE1 151055Z 07005KT 19/17 A2991 RMK A01 T01860171  RH  093%=      5-min Rain = 0
KSE1 151100Z 07003KT 19/17 A2991 RMK A01 T01880172  RH  093%=      5-min Rain = 0
KSE1 151105Z 10004KT 19/17 A2991 RMK A01 T01880171  RH  092%=      5-min Rain = 0
KSE1 151110Z 11004KT 18/17 A299 RMK A01 T01840169  RH  093%=      5-min Rain = 0
KSE1 151115Z 10003KT 18/17 A299 RMK A01 T01830169  RH  094%=      5-min Rain = 0
KSE1 151120Z 09003KT 18/17 A299 RMK A01 T01840171  RH  094%=      5-min Rain = 0
KSE1 151125Z 10004KT 18/17 A299 RMK A01 T01840171  RH  094%=      5-min Rain = 0
KSE1 151130Z 11005KT 18/17 A299 RMK A01 T01840170  RH  094%=      5-min Rain = 0
KSE1 151135Z 09004KT 19/17 A2991 RMK A01 T01850172  RH  095%=      5-min Rain = 0
KSE1 151140Z 07004KT 19/17 A2991 RMK A01 T01870173  RH  094%=      5-min Rain = 0
KSE1 151145Z 08004KT 19/17 A2991 RMK A01 T01880173  RH  094%=      5-min Rain = 0
KSE1 151150Z 09004KT 19/17 A2992 RMK A01 T01870172  RH  093%=      5-min Rain = 0
KSE1 151155Z 08003KT 19/17 A2993 RMK A01 T01860172  RH  093%=      5-min Rain = 0
KSE1 151200Z 08005KT 19/17 A2993 RMK A01 T01870173  RH  093%=      5-min Rain = 0
KSE1 151205Z 09004KT 19/17 A2993 RMK A01 T01880173  RH  093%=      5-min Rain = 0
KSE1 151210Z 11004KT 19/17 A2994 RMK A01 T01880173  RH  093%=      5-min Rain = 0
KSE1 151215Z 11004KT 19/17 A2994 RMK A01 T01880173  RH  093%=      5-min Rain = 0
KSE1 151220Z 09004KT 19/18 A2994 RMK A01 T01900176  RH  094%=      5-min Rain = 0
KSE1 151225Z 09004KT 20/18 A2994 RMK A01 T01950178  RH  093%=      5-min Rain = 0
KSE1 151230Z 09004KT 20/18 A2994 RMK A01 T01980180  RH  092%=      5-min Rain = 0
KSE1 151235Z 10004KT 20/18 A2994 RMK A01 T02000181  RH  091%=      5-min Rain = 0
KSE1 151240Z 11005KT 20/18 A2995 RMK A01 T02040183  RH  090%=      5-min Rain = 0
KSE1 151245Z 12005KT 21/19 A2995 RMK A01 T02080185  RH  088%=      5-min Rain = 0
KSE1 151250Z 13006KT 21/19 A2995 RMK A01 T02120185  RH  087%=      5-min Rain = 0
KSE1 151255Z 13007KT 22/19 A2995 RMK A01 T02150185  RH  085%=      5-min Rain = 0
KSE1 151300Z 14007KT 22/19 A2995 RMK A01 T02160185  RH  085%=      5-min Rain = 0
KSE1 151305Z 13007KT 22/19 A2995 RMK A01 T02180186  RH  084%=      5-min Rain = 0
KSE1 151310Z 13009KT 22/19 A2995 RMK A01 T02210186  RH  083%=      5-min Rain = 0
KSE1 151315Z 14007KT 22/19 A2995 RMK A01 T02240187  RH  082%=      5-min Rain = 0
KSE1 151320Z 14007KT 23/19 A2995 RMK A01 T02250186  RH  081%=      5-min Rain = 0
KSE1 151325Z 13008KT 23/19 A2995 RMK A01 T02280186  RH  079%=      5-min Rain = 0
KSE1 151330Z 13008KT 23/19 A2995 RMK A01 T02300185  RH  078%=      5-min Rain = 0
KSE1 151335Z 14006KT 23/19 A2995 RMK A01 T02330187  RH  077%=      5-min Rain = 0
KSE1 151340Z 14006KT 24/19 A2995 RMK A01 T02360185  RH  075%=      5-min Rain = 0
KSE1 151345Z 13006KT 24/19 A2995 RMK A01 T02380185  RH  074%=      5-min Rain = 0
KSE1 151350Z 14008KT 24/18 A2995 RMK A01 T02410183  RH  072%=      5-min Rain = 0
KSE1 151355Z 14007KT 24/18 A2996 RMK A01 T02440183  RH  070%=      5-min Rain = 0
KSE1 151400Z 15007KT 24/18 A2996 RMK A01 T02420181  RH  071%=      5-min Rain = 0
KSE1 151405Z 15008KT 24/18 A2996 RMK A01 T02440181  RH  070%=      5-min Rain = 0
KSE1 151410Z 15008G13KT 25/18 A2996 RMK A01 T02470182  RH  069%=      5-min Rain = 0
KSE1 151415Z 15009KT 25/18 A2996 RMK A01 T02480180  RH  067%=      5-min Rain = 0
KSE1 151420Z 15009KT 25/18 A2996 RMK A01 T02500180  RH  067%=      5-min Rain = 0
KSE1 151425Z 16009KT 26/18 A2995 RMK A01 T02550180  RH  065%=      5-min Rain = 0
KSE1 151430Z 15011KT 26/18 A2995 RMK A01 T02570180  RH  064%=      5-min Rain = 0
KSE1 151435Z 15011G16KT 26/18 A2996 RMK A01 T02570180  RH  064%=      5-min Rain = 0
KSE1 151440Z 15011KT 26/18 A2996 RMK A01 T02580180  RH  063%=      5-min Rain = 0
KSE1 151445Z 15012KT 26/18 A2996 RMK A01 T02610179  RH  062%=      5-min Rain = 0
KSE1 151450Z 14010KT 26/18 A2996 RMK A01 T02630180  RH  062%=      5-min Rain = 0
KSE1 151455Z 15008KT 27/18 A2996 RMK A01 T02670182  RH  061%=      5-min Rain = 0
KSE1 151500Z 16010KT 27/18 A2996 RMK A01 T02650182  RH  062%=      5-min Rain = 0
KSE1 151505Z 13010KT 27/18 A2996 RMK A01 T02680183  RH  061%=      5-min Rain = 0
KSE1 151510Z 14009G14KT 27/18 A2996 RMK A01 T02690182  RH  061%=      5-min Rain = 0
KSE1 151515Z 16008KT 27/18 A2996 RMK A01 T02710183  RH  060%=      5-min Rain = 0
KSE1 151520Z 15009G14KT 27/18 A2996 RMK A01 T02710183  RH  060%=      5-min Rain = 0
KSE1 151525Z 14007KT 27/18 A2997 RMK A01 T02720182  RH  059%=      5-min Rain = 0
KSE1 151530Z 13005KT 28/18 A2997 RMK A01 T02750183  RH  059%=      5-min Rain = 0
KSE1 151535Z 13006KT 27/18 A2997 RMK A01 T02740183  RH  059%=      5-min Rain = 0
KSE1 151540Z 12007KT 28/18 A2997 RMK A01 T02780184  RH  058%=      5-min Rain = 0
KSE1 151545Z 12005G10KT 28/18 A2997 RMK A01 T02840183  RH  056%=      5-min Rain = 0
KSE1 151550Z 13005KT 28/18 A2998 RMK A01 T02800181  RH  056%=      5-min Rain = 0
KSE1 151555Z 11004KT 28/18 A2998 RMK A01 T02820184  RH  057%=      5-min Rain = 0
KSE1 151600Z 14005KT 28/18 A2998 RMK A01 T02820182  RH  056%=      5-min Rain = 0
KSE1 151605Z 12005KT 28/18 A2998 RMK A01 T02770178  RH  056%=      5-min Rain = 0
KSE1 151610Z 08004KT 28/18 A2998 RMK A01 T02750178  RH  057%=      5-min Rain = 0
KSE1 151615Z 10004KT 28/18 A2998 RMK A01 T02750177  RH  056%=      5-min Rain = 0
KSE1 151620Z 10004KT 28/18 A2998 RMK A01 T02780180  RH  057%=      5-min Rain = 0
KSE1 151625Z 12005KT 28/18 A2997 RMK A01 T02770178  RH  056%=      5-min Rain = 0
KSE1 151630Z 16006KT 28/18 A2997 RMK A01 T02770178  RH  056%=      5-min Rain = 0
KSE1 151635Z 15005KT 28/18 A2997 RMK A01 T02750177  RH  056%=      5-min Rain = 0
KSE1 151640Z 12004KT 28/18 A2997 RMK A01 T02750176  RH  056%=      5-min Rain = 0
KSE1 151645Z 10004KT 28/18 A2997 RMK A01 T02750176  RH  056%=      5-min Rain = 0
KSE1 151650Z 13004KT 28/18 A2997 RMK A01 T02780179  RH  056%=      5-min Rain = 0
KSE1 151655Z 14005KT 28/18 A2997 RMK A01 T02790179  RH  056%=      5-min Rain = 0
KSE1 151700Z 16006KT 28/18 A2997 RMK A01 T02780179  RH  056%=      5-min Rain = 0
KSE1 151705Z 15007KT 28/18 A2997 RMK A01 T02780180  RH  056%=      5-min Rain = 0
KSE1 151710Z 14006KT 28/18 A2997 RMK A01 T02780179  RH  056%=      5-min Rain = 0
KSE1 151715Z 14006KT 28/18 A2997 RMK A01 T02800182  RH  056%=      5-min Rain = 0
KSE1 151720Z 15005KT 28/18 A2997 RMK A01 T02840183  RH  056%=      5-min Rain = 0
KSE1 151725Z 11007KT 29/18 A2997 RMK A01 T02860183  RH  055%=      5-min Rain = 0
KSE1 151730Z 14007KT 30/19 A2997 RMK A01 T02950186  RH  053%=      5-min Rain = 0
KSE1 151735Z 15007KT 29/18 A2997 RMK A01 T02940184  RH  053%=      5-min Rain = 0
KSE1 151740Z 11006KT 30/18 A2997 RMK A01 T02960184  RH  053%=      5-min Rain = 0
KSE1 151745Z 12007KT 30/18 A2996 RMK A01 T02990180  RH  050%=      5-min Rain = 0
KSE1 151750Z 13008KT 30/18 A2996 RMK A01 T02950175  RH  049%=      5-min Rain = 0
KSE1 151755Z 13006G11KT 30/18 A2996 RMK A01 T02990180  RH  050%=      5-min Rain = 0
KSE1 151800Z 14008KT 30/18 A2995 RMK A01 T03040183  RH  050%=      5-min Rain = 0
KSE1 151805Z 14006KT 30/18 A2995 RMK A01 T03040183  RH  050%=      5-min Rain = 0
KSE1 151810Z 12008KT 31/18 A2995 RMK A01 T03060182  RH  049%=      5-min Rain = 0
KSE1 151815Z 11008KT 30/18 A2995 RMK A01 T03030176  RH  048%=      5-min Rain = 0
KSE1 151820Z 13008G13KT 31/18 A2995 RMK A01 T03060180  RH  048%=      5-min Rain = 0
KSE1 151825Z 11009KT 31/18 A2995 RMK A01 T03090175  RH  046%=      5-min Rain = 0
KSE1 151830Z 13007KT 31/18 A2995 RMK A01 T03120176  RH  045%=      5-min Rain = 0
KSE1 151835Z 13007G12KT 32/18 A2995 RMK A01 T03150180  RH  046%=      5-min Rain = 0
KSE1 151840Z 11008G13KT 31/18 A2995 RMK A01 T03140179  RH  046%=      5-min Rain = 0
KSE1 151845Z 12005KT 31/18 A2994 RMK A01 T03120178  RH  046%=      5-min Rain = 0
KSE1 151850Z 10006G11KT 32/18 A2994 RMK A01 T03150181  RH  046%=      5-min Rain = 0
KSE1 151855Z 09008G13KT 31/18 A2994 RMK A01 T03140179  RH  046%=      5-min Rain = 0
KSE1 151900Z 09005G10KT 31/18 A2994 RMK A01 T03130178  RH  046%=      5-min Rain = 0
KSE1 151905Z 09006KT 32/18 A2993 RMK A01 T03160178  RH  045%=      5-min Rain = 0
KSE1 151910Z 09005G10KT 32/18 A2993 RMK A01 T03150178  RH  045%=      5-min Rain = 0
KSE1 151915Z 11007G12KT 32/18 A2993 RMK A01 T03160180  RH  045%=      5-min Rain = 0
KSE1 151920Z 11006KT 32/18 A2993 RMK A01 T03180184  RH  046%=      5-min Rain = 0
KSE1 151925Z 09005G12KT 32/18 A2993 RMK A01 T03170180  RH  045%=      5-min Rain = 0
KSE1 151930Z 11008KT 32/19 A2993 RMK A01 T03210185  RH  046%=      5-min Rain = 0
KSE1 151935Z 13007KT 32/18 A2993 RMK A01 T03220184  RH  045%=      5-min Rain = 0
KSE1 151940Z 10003KT 32/18 A2993 RMK A01 T03150182  RH  046%=      5-min Rain = 0
KSE1 151945Z 08005KT 31/18 A2993 RMK A01 T03130180  RH  046%=      5-min Rain = 0
KSE1 151950Z 13009KT 32/18 A2992 RMK A01 T03230182  RH  044%=      5-min Rain = 0
KSE1 151955Z 14009G14KT 32/18 A2992 RMK A01 T03220178  RH  044%=      5-min Rain = 0
KSE1 152000Z 14008KT 32/18 A2992 RMK A01 T03240179  RH  043%=      5-min Rain = 0
KSE1 152005Z 13006G11KT 33/18 A2992 RMK A01 T03250180  RH  043%=      5-min Rain = 0
KSE1 152010Z 10008G13KT 33/18 A2992 RMK A01 T03270180  RH  043%=      5-min Rain = 0
KSE1 152015Z 12007KT 32/18 A2991 RMK A01 T03170177  RH  044%=      5-min Rain = 0
KSE1 152020Z 12006G13KT 32/18 A2991 RMK A01 T03200179  RH  044%=      5-min Rain = 0
KSE1 152025Z 11007KT 33/18 A2991 RMK A01 T03250179  RH  043%=      5-min Rain = 0
KSE1 152030Z 14004KT 33/18 A2991 RMK A01 T03300180  RH  042%=      5-min Rain = 0
KSE1 152035Z 11009KT 33/18 A299 RMK A01 T03330180  RH  042%=      5-min Rain = 0
KSE1 152040Z 09007G12KT 33/18 A299 RMK A01 T03290177  RH  042%=      5-min Rain = 0
KSE1 152045Z 10005G13KT 33/18 A299 RMK A01 T03290176  RH  041%=      5-min Rain = 0
KSE1 152050Z 10008G16KT 33/18 A2989 RMK A01 T03290181  RH  043%=      5-min Rain = 0
KSE1 152055Z 10009KT 32/18 A2989 RMK A01 T03220178  RH  043%=      5-min Rain = 0
KSE1 152100Z 12006G15KT 33/18 A2989 RMK A01 T03260179  RH  043%=      5-min Rain = 0
KSE1 152105Z 10007KT 33/18 A2988 RMK A01 T03320183  RH  043%=      5-min Rain = 0
KSE1 152110Z 09006KT 33/18 A2988 RMK A01 T03300179  RH  042%=      5-min Rain = 0
KSE1 152115Z 10008G15KT 33/18 A2987 RMK A01 T03300180  RH  042%=      5-min Rain = 0
KSE1 152120Z 12009KT 33/18 A2987 RMK A01 T03300181  RH  042%=      5-min Rain = 0
KSE1 152125Z 14008G13KT 33/18 A2987 RMK A01 T03330180  RH  041%=      5-min Rain = 0
KSE1 152130Z 13011KT 33/18 A2987 RMK A01 T03340181  RH  041%=      5-min Rain = 0
KSE1 152135Z 12008KT 33/18 A2987 RMK A01 T03320180  RH  042%=      5-min Rain = 0
KSE1 152140Z 14008G15KT 33/18 A2987 RMK A01 T03320181  RH  042%=      5-min Rain = 0
KSE1 152145Z 14009KT 33/18 A2987 RMK A01 T03330180  RH  041%=      5-min Rain = 0
KSE1 152150Z 14006KT 33/18 A2986 RMK A01 T03340177  RH  040%=      5-min Rain = 0
KSE1 152155Z 13007G12KT 34/18 A2986 RMK A01 T03370180  RH  040%=      5-min Rain = 0
KSE1 152200Z 10006G13KT 33/18 A2986 RMK A01 T03340181  RH  041%=      5-min Rain = 0
KSE1 152205Z 13005KT 33/18 A2985 RMK A01 T03340175  RH  040%=      5-min Rain = 0
KSE1 152210Z 11007G12KT 33/18 A2985 RMK A01 T03340178  RH  040%=      5-min Rain = 0
KSE1 152215Z 12010G16KT 34/18 A2985 RMK A01 T03360182  RH  041%=      5-min Rain = 0
KSE1 152220Z 13009KT 34/18 A2986 RMK A01 T03350179  RH  041%=      5-min Rain = 0
KSE1 152225Z 09008G13KT 32/17 A2986 RMK A01 T03240171  RH  041%=      5-min Rain = 0
KSE1 152230Z 09008KT 33/18 A2986 RMK A01 T03260177  RH  042%=      5-min Rain = 0
KSE1 152235Z 09010KT 33/19 A2986 RMK A01 T03290188  RH  045%=      5-min Rain = 0
KSE1 152240Z 08010G15KT 33/19 A2986 RMK A01 T03280189  RH  045%=      5-min Rain = 0
KSE1 152245Z 10012KT 33/19 A2986 RMK A01 T03260188  RH  045%=      5-min Rain = 0
KSE1 152250Z 08012KT 32/19 A2986 RMK A01 T03200188  RH  047%=      5-min Rain = 0
KSE1 152255Z 09011G18KT 32/19 A2986 RMK A01 T03190192  RH  048%=      5-min Rain = 0
KSE1 152300Z 09013G19KT 32/19 A2986 RMK A01 T03170191  RH  048%=      5-min Rain = 0
KSE1 152305Z 09011G17KT 32/19 A2986 RMK A01 T03190191  RH  048%=      5-min Rain = 0
KSE1 152310Z 07010G16KT 32/19 A2986 RMK A01 T03170192  RH  049%=      5-min Rain = 0
KSE1 152315Z 08013G19KT 32/19 A2986 RMK A01 T03190190  RH  048%=      5-min Rain = 0
KSE1 152320Z 07011G16KT 32/19 A2986 RMK A01 T03150192  RH  050%=      5-min Rain = 0
KSE1 152325Z 06016G24KT 30/20 A2987 RMK A01 T02970200  RH  058%=      5-min Rain = 0
KSE1 152330Z 07015G22KT 29/20 A2986 RMK A01 T02880201  RH  061%=      5-min Rain = 0
KSE1 152335Z 07013G23KT 29/20 A2987 RMK A01 T02850201  RH  062%=      5-min Rain = 0
KSE1 152340Z 08016G25KT 28/20 A2987 RMK A01 T02840202  RH  063%=      5-min Rain = 0
KSE1 152345Z 09016G24KT 28/20 A2986 RMK A01 T02820202  RH  064%=      5-min Rain = 0
KSE1 152350Z 09017G25KT 28/20 A2986 RMK A01 T02790201  RH  064%=      5-min Rain = 0
KSE1 152355Z 08016G23KT 28/20 A2985 RMK A01 T02760202  RH  066%=      5-min Rain = 0
KSE1 160000Z 08015G26KT 27/20 A2985 RMK A01 T02730201  RH  067%=      5-min Rain = 0
KSE1 160005Z 08011G18KT 27/20 A2986 RMK A01 T02710199  RH  066%=      5-min Rain = 0
KSE1 160010Z 09011G16KT 26/20 A2987 RMK A01 T02630203  RH  071%=      5-min Rain = 0.02
KSE1 160015Z 09010KT 26/20 A2987 RMK A01 T02550204  RH  075%=      5-min Rain = 0
KSE1 160020Z 09010KT 25/21 A2987 RMK A01 T02540205  RH  076%=      5-min Rain = 0
KSE1 160025Z 10011KT 25/21 A2987 RMK A01 T02540205  RH  077%=      5-min Rain = 0
KSE1 160030Z 12014KT 25/20 A2987 RMK A01 T02520198  RH  074%=      5-min Rain = 0
KSE1 160035Z 12012KT 25/20 A2987 RMK A01 T02510198  RH  075%=      5-min Rain = 0
KSE1 160040Z 13009KT 25/20 A2987 RMK A01 T02490199  RH  076%=      5-min Rain = 0
KSE1 160045Z 14005KT 25/20 A2988 RMK A01 T02470202  RH  078%=      5-min Rain = 0
KSE1 160050Z 14005KT 25/20 A2988 RMK A01 T02450203  RH  080%=      5-min Rain = 0
KSE1 160055Z 16004KT 24/20 A2988 RMK A01 T02430204  RH  081%=      5-min Rain = 0
KSE1 160100Z 17004KT 24/21 A2988 RMK A01 T02410205  RH  082%=      5-min Rain = 0
KSE1 160105Z 16003KT 24/21 A2988 RMK A01 T02390206  RH  084%=      5-min Rain = 0
KSE1 160110Z 17003KT 24/21 A2988 RMK A01 T02390206  RH  084%=      5-min Rain = 0
KSE1 160115Z 16003KT 24/21 A2989 RMK A01 T02360206  RH  086%=      5-min Rain = 0
KSE1 160120Z 15004KT 24/21 A2989 RMK A01 T02350206  RH  086%=      5-min Rain = 0
KSE1 160125Z 13005KT 24/20 A2988 RMK A01 T02350204  RH  085%=      5-min Rain = 0
KSE1 160130Z 13005KT 24/20 A2989 RMK A01 T02350204  RH  085%=      5-min Rain = 0
KSE1 160135Z 12006KT 23/20 A2989 RMK A01 T02330204  RH  086%=      5-min Rain = 0
KSE1 160140Z 12007KT 23/20 A2989 RMK A01 T02330203  RH  085%=      5-min Rain = 0
KSE1 160145Z 12007KT 23/20 A2989 RMK A01 T02340204  RH  086%=      5-min Rain = 0
KSE1 160150Z 10007KT 23/20 A2989 RMK A01 T02340200  RH  083%=      5-min Rain = 0
KSE1 160155Z 11007KT 24/20 A299 RMK A01 T02350195  RH  080%=      5-min Rain = 0
KSE1 160200Z 09006KT 23/19 A299 RMK A01 T02340193  RH  080%=      5-min Rain = 0
KSE1 160205Z 10006KT 23/19 A2991 RMK A01 T02330192  RH  080%=      5-min Rain = 0
KSE1 160210Z 12006KT 23/19 A2992 RMK A01 T02330192  RH  080%=      5-min Rain = 0
KSE1 160215Z 14005KT 23/20 A2992 RMK A01 T02310195  RH  082%=      5-min Rain = 0
KSE1 160220Z 14005KT 23/20 A2992 RMK A01 T02320197  RH  083%=      5-min Rain = 0
KSE1 160225Z 16005KT 23/20 A2992 RMK A01 T02310199  RH  084%=      5-min Rain = 0
KSE1 160230Z 15005KT 23/20 A2992 RMK A01 T02320199  RH  084%=      5-min Rain = 0
KSE1 160235Z 14006KT 23/20 A2991 RMK A01 T02330198  RH  083%=      5-min Rain = 0
KSE1 160240Z 13006KT 23/20 A2991 RMK A01 T02330197  RH  082%=      5-min Rain = 0
KSE1 160245Z 15008G13KT 24/19 A2991 RMK A01 T02350192  RH  079%=      5-min Rain = 0
KSE1 160250Z 16007KT 23/19 A2991 RMK A01 T02330188  RH  078%=      5-min Rain = 0
KSE1 160255Z 17004KT 23/19 A2992 RMK A01 T02290187  RH  079%=      5-min Rain = 0
KSE1 160300Z 22005KT 23/19 A2993 RMK A01 T02250187  RH  081%=      5-min Rain = 0
KSE1 160305Z 21002KT 22/19 A2993 RMK A01 T02190187  RH  084%=      5-min Rain = 0
KSE1 160310Z 20002KT 22/19 A2993 RMK A01 T02180186  RH  084%=      5-min Rain = 0
KSE1 160315Z 20000KT 22/19 A2993 RMK A01 T02170187  RH  085%=      5-min Rain = 0
KSE1 160320Z 20000KT 22/19 A2994 RMK A01 T02190190  RH  086%=      5-min Rain = 0
KSE1 160325Z 29002KT 22/19 A2995 RMK A01 T02190193  RH  088%=      5-min Rain = 0
KSE1 160330Z 29001KT 22/19 A2995 RMK A01 T02200192  RH  086%=      5-min Rain = 0
KSE1 160335Z 26001KT 22/19 A2996 RMK A01 T02160191  RH  088%=      5-min Rain = 0
KSE1 160340Z 27004KT 21/19 A2997 RMK A01 T02090188  RH  090%=      5-min Rain = 0
KSE1 160345Z 25002KT 21/19 A2997 RMK A01 T02080191  RH  092%=      5-min Rain = 0
KSE1 160350Z 24003KT 22/19 A2997 RMK A01 T02150193  RH  090%=      5-min Rain = 0
KSE1 160355Z 30004KT 23/19 A2995 RMK A01 T02260191  RH  083%=      5-min Rain = 0
KSE1 160400Z 34004KT 23/19 A2995 RMK A01 T02280191  RH  082%=      5-min Rain = 0
KSE1 160405Z 05006G11KT 23/19 A2993 RMK A01 T02290192  RH  082%=      5-min Rain = 0
KSE1 160410Z 03010KT 23/19 A2991 RMK A01 T02250190  RH  083%=      5-min Rain = 0
KSE1 160415Z 06006KT 23/19 A2992 RMK A01 T02280190  RH  081%=      5-min Rain = 0
KSE1 160420Z 06008G13KT 23/19 A2995 RMK A01 T02300189  RH  080%=      5-min Rain = 0
KSE1 160425Z 07007KT 23/19 A2996 RMK A01 T02340187  RH  077%=      5-min Rain = 0
KSE1 160430Z 13007KT 23/19 A2996 RMK A01 T02270185  RH  079%=      5-min Rain = 0
KSE1 160435Z 17004KT 22/19 A2998 RMK A01 T02240185  RH  081%=      5-min Rain = 0
KSE1 160440Z 27015G22KT 22/19 A3004 RMK A01 T02230191  RH  085%=      5-min Rain = 0
KSE1 160445Z 28025G41KT 23/18 A3005 RMK A01 T02310175  RH  073%=      5-min Rain = 0
KSE1 160450Z 29023G31KT 23/15 A3006 RMK A01 T02250147  RH  063%=      5-min Rain = 0
KSE1 160455Z 30021G30KT 21/15 A3005 RMK A01 T02140146  RH  067%=      5-min Rain = 0

Page generated in 0.01 seconds.